createdAt,value
2023-09-29T00:01:46.114Z,15.00
2023-09-29T00:04:13.046Z,15.00
2023-09-29T00:06:40.044Z,15.10
2023-09-29T00:09:13.108Z,15.10
2023-09-29T00:11:40.659Z,15.00
2023-09-29T00:14:07.930Z,15.20
2023-09-29T00:16:35.014Z,15.30
2023-09-29T00:19:02.069Z,15.10
2023-09-29T00:21:28.931Z,14.90
2023-09-29T00:23:55.805Z,14.90
2023-09-29T00:26:22.800Z,14.90
2023-09-29T00:28:51.574Z,14.80
2023-09-29T00:31:18.473Z,14.90
2023-09-29T00:33:45.667Z,14.90
2023-09-29T00:36:15.538Z,14.80
2023-09-29T00:38:42.372Z,14.80
2023-09-29T00:41:09.855Z,14.70
2023-09-29T00:43:37.092Z,14.70
2023-09-29T00:46:06.375Z,14.70
2023-09-29T00:48:34.725Z,14.80
2023-09-29T00:51:02.278Z,14.70
2023-09-29T00:53:29.778Z,14.70
2023-09-29T00:55:56.968Z,14.70
2023-09-29T00:58:24.702Z,14.70
2023-09-29T01:00:53.441Z,14.70
2023-09-29T01:03:20.550Z,14.70
2023-09-29T01:05:48.948Z,14.60
2023-09-29T01:08:27.380Z,14.50
2023-09-29T01:10:54.503Z,14.30
2023-09-29T01:13:23.735Z,14.20
2023-09-29T01:15:51.223Z,14.20
2023-09-29T01:18:18.344Z,14.40
2023-09-29T01:20:45.665Z,14.30
2023-09-29T01:23:12.799Z,14.20
2023-09-29T01:25:39.973Z,14.10
2023-09-29T01:28:08.875Z,14.00
2023-09-29T01:30:35.926Z,14.10
2023-09-29T01:33:03.783Z,14.20
2023-09-29T01:35:31.055Z,14.20
2023-09-29T01:38:01.837Z,14.10
2023-09-29T01:40:29.724Z,14.10
2023-09-29T01:42:59.774Z,14.10
2023-09-29T01:45:27.286Z,14.20
2023-09-29T01:47:54.521Z,14.10
2023-09-29T01:50:22.058Z,14.20
2023-09-29T01:52:49.841Z,14.20
2023-09-29T01:55:17.680Z,14.30
2023-09-29T01:57:44.836Z,14.30
2023-09-29T02:00:25.414Z,14.30
2023-09-29T02:02:54.245Z,14.30
2023-09-29T02:05:21.701Z,14.30
2023-09-29T02:07:50.170Z,14.30
2023-09-29T02:10:20.797Z,14.40
2023-09-29T02:12:55.258Z,14.30
2023-09-29T02:15:23.051Z,14.30
2023-09-29T02:17:50.732Z,14.30
2023-09-29T02:20:19.729Z,14.50
2023-09-29T02:22:46.871Z,14.30
2023-09-29T02:25:16.603Z,14.20
2023-09-29T02:27:43.724Z,14.30
2023-09-29T02:30:11.347Z,14.10
2023-09-29T02:32:38.759Z,13.90
2023-09-29T02:35:06.309Z,13.80
2023-09-29T02:37:33.690Z,13.70
2023-09-29T02:40:00.869Z,13.60
2023-09-29T02:42:27.659Z,13.60
2023-09-29T02:44:54.619Z,13.80
2023-09-29T02:47:21.688Z,13.90
2023-09-29T02:49:49.420Z,13.90
2023-09-29T02:52:16.622Z,13.70
2023-09-29T02:54:43.549Z,13.60
2023-09-29T02:57:10.414Z,13.70
2023-09-29T02:59:39.552Z,13.60
2023-09-29T03:02:07.717Z,13.50
2023-09-29T03:04:34.574Z,13.50
2023-09-29T03:07:01.441Z,13.50
2023-09-29T03:09:30.329Z,13.50
2023-09-29T03:12:00.143Z,13.50
2023-09-29T03:14:27.436Z,13.50
2023-09-29T03:16:59.638Z,13.50
2023-09-29T03:19:27.310Z,13.60
2023-09-29T03:21:55.146Z,13.60
2023-09-29T03:24:23.233Z,13.70
2023-09-29T03:26:50.557Z,13.70
2023-09-29T03:29:19.064Z,13.60
2023-09-29T03:31:47.863Z,13.70
2023-09-29T03:34:17.596Z,13.70
2023-09-29T03:36:44.431Z,14.00
2023-09-29T03:39:11.556Z,14.00
2023-09-29T03:41:38.544Z,14.20
2023-09-29T03:44:05.506Z,14.20
2023-09-29T03:46:32.496Z,14.20
2023-09-29T03:48:59.370Z,14.30
2023-09-29T03:51:26.533Z,14.60
2023-09-29T03:53:54.177Z,14.60
2023-09-29T03:56:24.445Z,14.40
2023-09-29T03:58:51.847Z,14.30
2023-09-29T04:01:18.942Z,14.40
2023-09-29T04:03:46.343Z,14.70
2023-09-29T04:06:13.314Z,14.70
2023-09-29T04:08:40.385Z,14.60
2023-09-29T04:11:08.660Z,14.50
2023-09-29T04:13:35.490Z,14.40
2023-09-29T04:16:06.052Z,14.60
2023-09-29T04:18:33.404Z,14.60
2023-09-29T04:21:01.499Z,14.70
2023-09-29T04:23:28.728Z,14.70
2023-09-29T04:25:55.601Z,14.70
2023-09-29T04:28:22.472Z,15.00
2023-09-29T04:30:49.489Z,14.80
2023-09-29T04:33:16.409Z,14.70
2023-09-29T04:35:44.662Z,14.80
2023-09-29T04:38:11.942Z,14.80
2023-09-29T04:40:39.311Z,14.80
2023-09-29T04:43:07.308Z,14.80
2023-09-29T04:45:36.849Z,14.80
2023-09-29T04:48:03.859Z,14.80
2023-09-29T04:50:31.263Z,14.90
2023-09-29T04:52:58.359Z,14.90
2023-09-29T04:55:25.608Z,14.90
2023-09-29T04:57:55.434Z,15.00
2023-09-29T05:00:22.569Z,15.10
2023-09-29T05:02:49.496Z,15.10
2023-09-29T05:05:16.603Z,14.90
2023-09-29T05:07:46.260Z,15.00
2023-09-29T05:10:16.385Z,14.90
2023-09-29T05:12:44.844Z,14.90
2023-09-29T05:15:11.969Z,14.70
2023-09-29T05:17:50.617Z,14.80
2023-09-29T05:20:18.784Z,14.80
2023-09-29T05:22:45.570Z,15.00
2023-09-29T05:25:12.474Z,14.80
2023-09-29T05:27:39.279Z,14.80
2023-09-29T05:30:06.694Z,14.80
2023-09-29T05:32:33.756Z,14.90
2023-09-29T05:35:00.664Z,15.00
2023-09-29T05:37:27.664Z,15.10
2023-09-29T05:39:54.775Z,15.10
2023-09-29T05:42:30.402Z,15.00
2023-09-29T05:45:04.495Z,15.00
2023-09-29T05:47:32.087Z,15.30
2023-09-29T05:50:11.463Z,15.20
2023-09-29T05:52:55.687Z,15.20
2023-09-29T05:55:27.314Z,15.20
2023-09-29T05:57:54.135Z,15.30
2023-09-29T06:00:21.251Z,15.40
2023-09-29T06:02:48.678Z,15.60
2023-09-29T06:05:15.642Z,15.30
2023-09-29T06:07:42.496Z,15.30
2023-09-29T06:10:09.573Z,15.20
2023-09-29T06:12:36.575Z,15.50
2023-09-29T06:15:03.586Z,15.70
2023-09-29T06:17:31.196Z,15.70
2023-09-29T06:19:58.396Z,15.60
2023-09-29T06:22:25.800Z,15.50
2023-09-29T06:24:52.610Z,15.70
2023-09-29T06:27:19.482Z,15.80
2023-09-29T06:29:51.049Z,15.70
2023-09-29T06:32:18.124Z,15.60
2023-09-29T06:34:45.195Z,15.80
2023-09-29T06:37:12.203Z,15.70
2023-09-29T06:39:39.019Z,16.00
2023-09-29T06:42:06.049Z,16.10
2023-09-29T06:44:33.873Z,15.90
2023-09-29T06:47:00.960Z,16.20
2023-09-29T06:49:27.792Z,16.10
2023-09-29T06:51:54.782Z,16.30
2023-09-29T06:54:21.659Z,16.20
2023-09-29T06:56:48.656Z,16.40
2023-09-29T06:59:15.621Z,16.70
2023-09-29T07:01:42.487Z,16.70
2023-09-29T07:04:11.387Z,16.60
2023-09-29T07:06:38.598Z,16.90
2023-09-29T07:09:06.132Z,17.10
2023-09-29T07:11:33.282Z,17.40
2023-09-29T07:14:00.212Z,17.10
2023-09-29T07:16:27.066Z,16.90
2023-09-29T07:18:53.959Z,16.90
2023-09-29T07:21:21.341Z,17.10
2023-09-29T07:23:48.276Z,17.00
2023-09-29T07:26:15.317Z,16.80
2023-09-29T07:28:42.312Z,16.70
2023-09-29T07:31:09.255Z,16.80
2023-09-29T07:33:36.210Z,17.00
2023-09-29T07:36:03.647Z,16.90
2023-09-29T07:38:30.597Z,17.20
2023-09-29T07:40:57.509Z,17.30
2023-09-29T07:43:24.336Z,17.30
2023-09-29T07:45:51.204Z,17.50
2023-09-29T07:48:18.515Z,17.70
2023-09-29T07:50:45.557Z,17.60
2023-09-29T07:53:12.901Z,17.20
2023-09-29T07:55:40.092Z,17.20
2023-09-29T07:58:07.612Z,17.50
2023-09-29T08:00:34.627Z,17.80
2023-09-29T08:03:01.888Z,18.50
2023-09-29T08:05:28.906Z,19.90
2023-09-29T08:07:55.749Z,20.70
2023-09-29T08:10:22.621Z,21.70
2023-09-29T08:12:49.675Z,23.00
2023-09-29T08:15:16.905Z,23.80
2023-09-29T08:17:45.460Z,24.40
2023-09-29T08:20:12.762Z,24.80
2023-09-29T08:22:41.641Z,25.60
2023-09-29T08:25:10.693Z,24.70
2023-09-29T08:27:37.954Z,23.60
2023-09-29T08:30:05.704Z,23.00
2023-09-29T08:32:32.810Z,22.60
2023-09-29T08:34:59.689Z,22.30
2023-09-29T08:37:26.564Z,23.40
2023-09-29T08:39:54.761Z,24.10
2023-09-29T08:42:27.498Z,24.00
2023-09-29T08:44:55.782Z,23.30
2023-09-29T08:47:26.938Z,22.30
2023-09-29T08:49:53.859Z,23.50
2023-09-29T08:52:21.008Z,26.20
2023-09-29T08:54:47.878Z,26.60
2023-09-29T08:57:16.398Z,27.00
2023-09-29T08:59:44.917Z,26.70
2023-09-29T09:02:11.943Z,25.70
2023-09-29T09:04:38.904Z,25.00
2023-09-29T09:07:05.878Z,24.40
2023-09-29T09:09:33.701Z,24.10
2023-09-29T09:12:00.574Z,23.60
2023-09-29T09:14:27.533Z,23.60
2023-09-29T09:16:54.703Z,23.20
2023-09-29T09:19:22.291Z,23.60
2023-09-29T09:21:49.342Z,24.90
2023-09-29T09:24:20.177Z,25.50
2023-09-29T09:26:47.897Z,26.90
2023-09-29T09:29:18.592Z,29.10
2023-09-29T09:31:46.186Z,29.60
2023-09-29T09:34:14.236Z,29.00
2023-09-29T09:36:55.199Z,28.60
2023-09-29T09:39:25.185Z,29.40
2023-09-29T09:41:53.784Z,30.50
2023-09-29T09:44:24.194Z,31.30
2023-09-29T09:46:55.341Z,32.10
2023-09-29T09:49:24.458Z,32.30
2023-09-29T09:51:53.286Z,32.30
2023-09-29T09:54:23.255Z,33.10
2023-09-29T09:56:59.569Z,33.50
2023-09-29T09:59:26.933Z,34.90
2023-09-29T10:01:54.054Z,35.20
2023-09-29T10:04:22.194Z,33.70
2023-09-29T10:06:49.125Z,34.30
2023-09-29T10:09:16.100Z,34.20
2023-09-29T10:11:44.364Z,33.70
2023-09-29T10:14:11.995Z,34.80
2023-09-29T10:16:42.284Z,35.40
2023-09-29T10:19:13.813Z,35.10
2023-09-29T10:21:41.824Z,35.00
2023-09-29T10:24:12.946Z,35.00
2023-09-29T10:26:47.692Z,33.90
2023-09-29T10:29:21.474Z,35.30
2023-09-29T10:31:50.270Z,34.60
2023-09-29T10:34:23.658Z,33.70
2023-09-29T10:36:54.577Z,34.50
2023-09-29T10:39:27.055Z,35.20
2023-09-29T10:42:02.350Z,34.10
2023-09-29T10:44:29.392Z,35.40
2023-09-29T10:46:56.259Z,36.10
2023-09-29T10:49:33.265Z,36.60
2023-09-29T10:52:00.983Z,36.00
2023-09-29T10:54:27.960Z,36.60
2023-09-29T10:56:55.035Z,36.60
2023-09-29T10:59:23.630Z,37.00
2023-09-29T11:01:50.580Z,36.90
2023-09-29T11:04:17.593Z,36.40
2023-09-29T11:06:47.931Z,37.20
2023-09-29T11:09:16.047Z,36.50
2023-09-29T11:11:42.965Z,34.80
2023-09-29T11:14:10.204Z,35.00
2023-09-29T11:16:38.224Z,34.80
2023-09-29T11:19:13.061Z,33.60
2023-09-29T11:21:41.430Z,32.90
2023-09-29T11:24:12.490Z,32.30
2023-09-29T11:26:40.471Z,30.90
2023-09-29T11:29:09.757Z,30.10
2023-09-29T11:31:38.260Z,30.60
2023-09-29T11:34:07.917Z,31.00
2023-09-29T11:36:34.845Z,32.30
2023-09-29T11:39:01.972Z,31.50
2023-09-29T11:41:30.853Z,31.80
2023-09-29T11:43:57.906Z,31.60
2023-09-29T11:46:24.857Z,31.10
2023-09-29T11:48:51.756Z,31.60
2023-09-29T11:51:18.958Z,32.40
2023-09-29T11:53:46.146Z,33.10
2023-09-29T11:56:13.037Z,33.60
2023-09-29T11:58:40.617Z,33.60
2023-09-29T12:01:07.872Z,33.40
2023-09-29T12:03:35.768Z,33.80
2023-09-29T12:06:03.758Z,34.30
2023-09-29T12:08:31.167Z,34.40
2023-09-29T12:10:58.807Z,34.90
2023-09-29T12:13:26.544Z,34.60
2023-09-29T12:15:53.604Z,34.30
2023-09-29T12:18:20.799Z,34.70
2023-09-29T12:20:47.831Z,35.50
2023-09-29T12:23:14.819Z,35.40
2023-09-29T12:25:41.666Z,35.50
2023-09-29T12:28:08.775Z,35.40
2023-09-29T12:30:36.033Z,34.90
2023-09-29T12:33:02.985Z,35.10
2023-09-29T12:35:29.891Z,36.40
2023-09-29T12:37:56.740Z,36.10
2023-09-29T12:40:23.547Z,36.80
2023-09-29T12:42:51.286Z,37.00
2023-09-29T12:45:21.835Z,36.70
2023-09-29T12:47:49.731Z,37.40
2023-09-29T12:50:17.029Z,37.70
2023-09-29T12:52:46.034Z,37.30
2023-09-29T12:55:16.265Z,36.70
2023-09-29T12:57:46.102Z,36.60
2023-09-29T13:00:20.209Z,35.40
2023-09-29T13:02:48.577Z,35.80
2023-09-29T13:05:15.528Z,35.60
2023-09-29T13:07:42.536Z,33.30
2023-09-29T13:10:09.579Z,31.70
2023-09-29T13:12:36.536Z,31.50
2023-09-29T13:15:06.576Z,30.80
2023-09-29T13:17:34.009Z,31.80
2023-09-29T13:20:01.008Z,33.70
2023-09-29T13:22:28.321Z,33.70
2023-09-29T13:24:55.100Z,34.90
2023-09-29T13:27:22.211Z,36.40
2023-09-29T13:29:51.855Z,37.80
2023-09-29T13:32:19.277Z,37.60
2023-09-29T13:34:46.291Z,35.20
2023-09-29T13:37:18.142Z,34.20
2023-09-29T13:39:49.569Z,33.70
2023-09-29T13:42:17.042Z,34.60
2023-09-29T13:44:43.861Z,34.70
2023-09-29T13:47:10.860Z,35.60
2023-09-29T13:49:37.752Z,36.80
2023-09-29T13:52:06.204Z,37.40
2023-09-29T13:54:33.135Z,36.30
2023-09-29T13:57:00.946Z,37.10
2023-09-29T13:59:28.450Z,37.60
2023-09-29T14:01:55.309Z,37.70
2023-09-29T14:04:22.367Z,37.20
2023-09-29T14:06:49.335Z,37.00
2023-09-29T14:09:17.817Z,36.90
2023-09-29T14:11:45.802Z,37.20
2023-09-29T14:14:12.825Z,36.50
2023-09-29T14:16:40.009Z,37.50
2023-09-29T14:19:07.135Z,37.40
2023-09-29T14:21:34.669Z,34.90
2023-09-29T14:24:02.194Z,32.80
2023-09-29T14:26:29.222Z,30.80
2023-09-29T14:28:59.238Z,29.00
2023-09-29T14:31:26.272Z,27.90
2023-09-29T14:33:54.980Z,27.70
2023-09-29T14:36:22.552Z,27.00
2023-09-29T14:38:49.682Z,26.40
2023-09-29T14:41:16.578Z,26.50
2023-09-29T14:43:45.818Z,26.30
2023-09-29T14:46:17.326Z,25.80
2023-09-29T14:48:44.464Z,25.70
2023-09-29T14:51:12.448Z,25.40
2023-09-29T14:53:39.853Z,25.50
2023-09-29T14:56:07.316Z,25.30
2023-09-29T14:58:34.453Z,25.20
2023-09-29T15:01:01.433Z,24.80
2023-09-29T15:03:28.963Z,24.50
2023-09-29T15:05:56.133Z,24.50
2023-09-29T15:08:23.121Z,24.40
2023-09-29T15:10:50.053Z,24.30
2023-09-29T15:13:16.933Z,24.20
2023-09-29T15:15:44.568Z,24.20
2023-09-29T15:18:11.718Z,24.30
2023-09-29T15:20:39.499Z,24.50
2023-09-29T15:23:09.094Z,24.50
2023-09-29T15:25:36.800Z,24.40
2023-09-29T15:28:08.257Z,24.30
2023-09-29T15:30:38.178Z,24.20
2023-09-29T15:33:05.149Z,24.10
2023-09-29T15:35:33.648Z,24.00
2023-09-29T15:38:02.054Z,23.90
2023-09-29T15:40:29.015Z,23.70
2023-09-29T15:42:55.815Z,23.60
2023-09-29T15:45:22.717Z,23.40
2023-09-29T15:47:49.604Z,23.40
2023-09-29T15:50:17.819Z,23.30
2023-09-29T15:52:45.631Z,23.20
2023-09-29T15:55:12.518Z,23.10
2023-09-29T15:57:39.303Z,23.10
2023-09-29T16:00:08.412Z,23.20
2023-09-29T16:02:37.534Z,23.20
2023-09-29T16:05:04.589Z,23.10
2023-09-29T16:07:31.504Z,22.90
2023-09-29T16:09:59.248Z,22.90
2023-09-29T16:12:26.092Z,22.80
2023-09-29T16:14:53.017Z,22.70
2023-09-29T16:17:19.904Z,22.70
2023-09-29T16:19:46.789Z,22.60
2023-09-29T16:22:13.688Z,22.60
2023-09-29T16:24:43.640Z,22.40
2023-09-29T16:27:11.138Z,22.30
2023-09-29T16:29:38.664Z,22.20
2023-09-29T16:32:17.134Z,22.10
2023-09-29T16:34:53.105Z,22.10
2023-09-29T16:37:20.045Z,22.00
2023-09-29T16:39:47.035Z,21.90
2023-09-29T16:42:13.848Z,21.90
2023-09-29T16:44:40.781Z,21.70
2023-09-29T16:47:08.128Z,21.80
2023-09-29T16:49:35.036Z,21.60
2023-09-29T16:52:02.574Z,21.50
2023-09-29T16:54:30.322Z,21.40
2023-09-29T16:56:58.133Z,21.30
2023-09-29T16:59:25.011Z,21.30
2023-09-29T17:01:52.491Z,21.20
2023-09-29T17:04:19.370Z,21.10
2023-09-29T17:06:46.286Z,21.00
2023-09-29T17:09:15.872Z,21.00
2023-09-29T17:11:46.192Z,21.10
2023-09-29T17:14:13.523Z,20.90
2023-09-29T17:16:40.882Z,20.90
2023-09-29T17:19:08.591Z,20.90
2023-09-29T17:21:35.681Z,20.90
2023-09-29T17:24:02.637Z,20.70
2023-09-29T17:26:29.543Z,20.70
2023-09-29T17:28:56.514Z,20.50
2023-09-29T17:31:25.982Z,20.50
2023-09-29T17:33:53.729Z,20.50
2023-09-29T17:36:20.653Z,20.30
2023-09-29T17:38:47.680Z,20.10
2023-09-29T17:41:16.627Z,20.30
2023-09-29T17:43:43.589Z,20.20
2023-09-29T17:46:10.673Z,20.30
2023-09-29T17:48:43.072Z,20.30
2023-09-29T17:51:14.785Z,20.10
2023-09-29T17:53:42.209Z,20.00
2023-09-29T17:56:11.703Z,20.00
2023-09-29T17:58:39.736Z,19.90
2023-09-29T18:01:08.035Z,20.00
2023-09-29T18:03:35.558Z,20.00
2023-09-29T18:06:02.706Z,19.90
2023-09-29T18:08:29.577Z,19.90
2023-09-29T18:10:56.417Z,20.00
2023-09-29T18:13:25.410Z,19.80
2023-09-29T18:15:52.846Z,19.90
2023-09-29T18:18:19.882Z,19.90
2023-09-29T18:20:46.735Z,19.80
2023-09-29T18:23:14.476Z,19.70
2023-09-29T18:25:43.243Z,19.70
2023-09-29T18:28:10.237Z,19.60
2023-09-29T18:30:37.308Z,19.40
2023-09-29T18:33:04.307Z,19.40
2023-09-29T18:35:31.232Z,19.50
2023-09-29T18:37:58.215Z,19.40
2023-09-29T18:40:25.084Z,19.30
2023-09-29T18:42:52.405Z,19.20
2023-09-29T18:45:19.301Z,19.20
2023-09-29T18:47:46.230Z,19.20
2023-09-29T18:50:14.121Z,19.00
2023-09-29T18:52:42.317Z,19.00
2023-09-29T18:55:09.777Z,19.00
2023-09-29T18:57:36.713Z,19.00
2023-09-29T19:00:06.140Z,18.80
2023-09-29T19:02:33.413Z,18.80
2023-09-29T19:05:01.136Z,18.70
2023-09-29T19:07:28.001Z,18.60
2023-09-29T19:09:54.910Z,18.60
2023-09-29T19:12:22.477Z,18.80
2023-09-29T19:14:49.518Z,18.70
2023-09-29T19:17:16.382Z,18.60
2023-09-29T19:19:43.185Z,18.70
2023-09-29T19:22:10.035Z,18.80
2023-09-29T19:24:36.907Z,18.80
2023-09-29T19:27:03.866Z,18.70
2023-09-29T19:29:30.810Z,18.80
2023-09-29T19:31:57.709Z,18.80
2023-09-29T19:34:24.672Z,18.80
2023-09-29T19:36:51.717Z,18.80
2023-09-29T19:39:18.692Z,18.90
2023-09-29T19:41:45.554Z,19.10
2023-09-29T19:44:13.191Z,18.90
2023-09-29T19:46:40.098Z,19.00
2023-09-29T19:49:07.095Z,18.80
2023-09-29T19:51:34.251Z,18.80
2023-09-29T19:54:01.501Z,18.90
2023-09-29T19:56:34.524Z,19.00
2023-09-29T19:59:01.842Z,19.10
2023-09-29T20:01:29.070Z,19.10
2023-09-29T20:03:56.641Z,19.10
2023-09-29T20:06:24.406Z,19.20
2023-09-29T20:08:54.154Z,19.20
2023-09-29T20:11:21.512Z,19.30
2023-09-29T20:13:48.402Z,19.20
2023-09-29T20:16:19.108Z,19.10
2023-09-29T20:18:46.350Z,19.30
2023-09-29T20:21:13.535Z,19.30
2023-09-29T20:23:40.572Z,19.30
2023-09-29T20:26:07.393Z,19.10
2023-09-29T20:28:34.909Z,19.10
2023-09-29T20:31:01.839Z,19.10
2023-09-29T20:33:28.827Z,19.20
2023-09-29T20:35:56.104Z,19.20
2023-09-29T20:38:23.110Z,19.10
2023-09-29T20:40:50.221Z,19.10
2023-09-29T20:43:17.228Z,19.10
2023-09-29T20:45:45.928Z,19.20
2023-09-29T20:48:13.351Z,19.10
2023-09-29T20:50:40.405Z,19.00
2023-09-29T20:53:07.374Z,19.00
2023-09-29T20:55:34.175Z,18.70
2023-09-29T20:58:01.622Z,18.50
2023-09-29T21:00:28.588Z,18.50
2023-09-29T21:02:55.562Z,18.50
2023-09-29T21:05:22.826Z,18.30
2023-09-29T21:07:49.735Z,18.40
2023-09-29T21:10:16.563Z,18.30
2023-09-29T21:12:43.422Z,18.20
2023-09-29T21:15:10.547Z,18.10
2023-09-29T21:17:37.515Z,18.10
2023-09-29T21:20:06.439Z,18.00
2023-09-29T21:22:33.270Z,17.90
2023-09-29T21:25:00.288Z,18.00
2023-09-29T21:27:27.241Z,18.00
2023-09-29T21:29:54.254Z,18.00
2023-09-29T21:32:21.071Z,18.10
2023-09-29T21:34:48.012Z,18.10
2023-09-29T21:37:15.022Z,18.20
2023-09-29T21:39:42.078Z,18.20
2023-09-29T21:42:08.984Z,18.30
2023-09-29T21:44:35.850Z,18.20
2023-09-29T21:47:02.638Z,18.30
2023-09-29T21:49:29.442Z,18.30
2023-09-29T21:51:56.329Z,18.40
2023-09-29T21:54:23.188Z,18.50
2023-09-29T21:56:50.015Z,18.40
2023-09-29T21:59:16.962Z,18.30
2023-09-29T22:01:44.887Z,18.40
2023-09-29T22:04:15.470Z,18.40
2023-09-29T22:06:44.776Z,18.20
2023-09-29T22:09:11.709Z,18.30
2023-09-29T22:11:38.686Z,18.20
2023-09-29T22:14:05.497Z,18.20
2023-09-29T22:16:32.706Z,18.20
2023-09-29T22:18:59.572Z,18.30
2023-09-29T22:21:26.544Z,18.30
2023-09-29T22:23:53.769Z,18.30
2023-09-29T22:26:26.676Z,18.30
2023-09-29T22:28:53.777Z,18.20
2023-09-29T22:31:21.151Z,18.20
2023-09-29T22:33:48.282Z,18.10
2023-09-29T22:36:15.284Z,17.90
2023-09-29T22:38:42.133Z,17.80
2023-09-29T22:41:09.038Z,17.80
2023-09-29T22:43:37.008Z,17.80
2023-09-29T22:46:04.288Z,17.70
2023-09-29T22:48:31.628Z,17.70
2023-09-29T22:50:59.727Z,17.60
2023-09-29T22:53:29.842Z,17.60
2023-09-29T22:55:59.728Z,17.50
2023-09-29T22:58:27.171Z,17.60
2023-09-29T23:00:54.476Z,17.60
2023-09-29T23:03:21.873Z,17.60
2023-09-29T23:05:49.239Z,17.60
2023-09-29T23:08:18.187Z,17.60
2023-09-29T23:10:46.739Z,17.60
2023-09-29T23:13:13.658Z,17.50
2023-09-29T23:15:41.208Z,17.60
2023-09-29T23:18:10.156Z,17.60
2023-09-29T23:20:39.729Z,17.50
2023-09-29T23:23:07.307Z,17.40
2023-09-29T23:25:34.365Z,17.40
2023-09-29T23:28:03.368Z,17.40
2023-09-29T23:30:31.036Z,17.30
2023-09-29T23:32:59.824Z,17.40
2023-09-29T23:35:27.816Z,17.40
2023-09-29T23:37:54.932Z,17.50
2023-09-29T23:40:21.975Z,17.40
2023-09-29T23:42:48.898Z,17.50
2023-09-29T23:45:16.511Z,17.50
2023-09-29T23:47:48.277Z,17.40
2023-09-29T23:50:15.240Z,17.20
2023-09-29T23:52:42.138Z,17.20
2023-09-29T23:55:10.143Z,17.30
2023-09-29T23:57:37.189Z,17.10
